Time;durP1;ratioP1;P1;durP2;ratioP2;P2;SDS_P1;SDS_P2;PMS_P1;PMS_P2;Temp;Humidity;BMP_temperature;BMP_pressure;BME280_temperature;BME280_humidity;BME280_pressure;Samples;Min_cycle;Max_cycle;Signal;HPM_P1;HPM_P2
2023/06/25 00:01:29;;;;;;;9.75;7.63;;;19.10;79.40;;;;;;5014909;28;20270;-74
2023/06/25 00:03:55;;;;;;;9.98;6.95;;;19.10;79.50;;;;;;5015025;28;20041;-74
2023/06/25 00:06:22;;;;;;;7.35;6.65;;;19.00;79.40;;;;;;5014291;28;20030;-73
2023/06/25 00:08:48;;;;;;;8.02;6.82;;;19.10;79.20;;;;;;5015276;28;20111;-73
2023/06/25 00:11:15;;;;;;;8.13;6.60;;;19.00;79.20;;;;;;5018018;28;20045;-74
2023/06/25 00:13:41;;;;;;;10.52;7.07;;;19.00;79.20;;;;;;5014921;28;20037;-74
2023/06/25 00:16:07;;;;;;;8.80;7.65;;;19.00;79.60;;;;;;5018225;28;20044;-73
2023/06/25 00:18:34;;;;;;;11.50;8.23;;;19.00;79.70;;;;;;5017930;28;20034;-73
2023/06/25 00:21:01;;;;;;;6.97;6.28;;;19.00;79.50;;;;;;5016642;28;20523;-73
2023/06/25 00:23:27;;;;;;;9.30;7.32;;;19.00;79.20;;;;;;5018855;28;20464;-74
2023/06/25 00:25:53;;;;;;;9.35;6.97;;;19.00;79.90;;;;;;5019786;28;20041;-73
2023/06/25 00:28:19;;;;;;;6.93;6.20;;;19.00;79.30;;;;;;5018428;28;20416;-74
2023/06/25 00:30:45;;;;;;;9.32;6.80;;;18.90;79.20;;;;;;5018104;28;20598;-73
2023/06/25 00:33:11;;;;;;;7.55;6.47;;;18.90;79.00;;;;;;5022251;28;20029;-74
2023/06/25 00:36:07;;;;;;;7.38;6.53;;;19.00;79.10;;;;;;5017930;28;20603;-74
2023/06/25 00:38:38;;;;;;;7.78;6.15;;;18.90;79.00;;;;;;5033406;28;20077;-73
2023/06/25 00:41:09;;;;;;;8.05;7.22;;;18.90;79.20;;;;;;5020229;28;20504;-72
2023/06/25 00:43:40;;;;;;;6.88;6.25;;;18.80;79.20;;;;;;5020922;28;20054;-74
2023/06/25 00:46:12;;;;;;;8.95;7.20;;;18.80;79.20;;;;;;5018496;28;20078;-75
2023/06/25 00:48:45;;;;;;;8.45;7.30;;;18.80;79.50;;;;;;5031863;28;20528;-74
2023/06/25 00:51:16;;;;;;;9.38;7.05;;;18.80;79.40;;;;;;5034068;28;20101;-73
2023/06/25 00:53:42;;;;;;;8.40;7.28;;;18.80;79.30;;;;;;5017834;28;20036;-75
2023/06/25 00:56:09;;;;;;;10.10;6.78;;;18.80;79.20;;;;;;5017670;28;20053;-74
2023/06/25 00:58:38;;;;;;;9.30;6.80;;;18.80;79.40;;;;;;5033285;28;20038;-74
2023/06/25 01:01:11;;;;;;;8.30;6.85;;;18.70;79.20;;;;;;5032340;28;20566;-73
2023/06/25 01:03:54;;;;;;;9.05;6.93;;;18.70;79.10;;;;;;5017414;28;20149;-72
2023/06/25 01:06:33;;;;;;;8.40;7.32;;;18.70;79.10;;;;;;5017409;28;20399;-72
2023/06/25 01:09:00;;;;;;;11.05;8.38;;;18.70;79.30;;;;;;5017147;28;20504;-73
2023/06/25 01:11:28;;;;;;;10.63;7.93;;;18.70;79.60;;;;;;5015052;28;20042;-72
2023/06/25 01:13:54;;;;;;;12.25;8.55;;;18.70;79.50;;;;;;5015718;28;20501;-72
2023/06/25 01:16:20;;;;;;;9.63;8.07;;;18.70;79.50;;;;;;5016275;28;20503;-73
2023/06/25 01:18:48;;;;;;;9.02;7.65;;;18.70;79.40;;;;;;5016365;28;20084;-74
2023/06/25 01:21:17;;;;;;;8.35;7.30;;;18.70;79.40;;;;;;5018093;28;20030;-75
2023/06/25 01:23:43;;;;;;;9.75;7.68;;;18.70;79.30;;;;;;4998418;28;20030;-74
2023/06/25 01:26:09;;;;;;;13.85;7.30;;;18.70;79.40;;;;;;4991951;28;20030;-75
2023/06/25 01:28:35;;;;;;;9.73;7.80;;;18.70;79.40;;;;;;5007335;28;20650;-75
2023/06/25 01:31:03;;;;;;;10.55;8.98;;;18.80;79.60;;;;;;5016865;28;20449;-75
2023/06/25 01:33:29;;;;;;;10.35;8.75;;;18.80;79.50;;;;;;5018410;28;20030;-74
2023/06/25 01:35:57;;;;;;;15.95;9.40;;;18.80;79.30;;;;;;5016239;28;20030;-74
2023/06/25 01:38:23;;;;;;;11.25;8.38;;;18.90;79.00;;;;;;5017761;28;20096;-75
2023/06/25 01:40:49;;;;;;;11.60;8.05;;;18.90;78.90;;;;;;5002632;28;20076;-75
2023/06/25 01:43:15;;;;;;;9.68;7.25;;;19.00;78.80;;;;;;5016755;28;20042;-72
2023/06/25 01:45:41;;;;;;;7.82;7.03;;;19.00;78.80;;;;;;5015423;28;20124;-72
2023/06/25 01:48:07;;;;;;;8.60;7.55;;;19.00;78.50;;;;;;5015592;28;20030;-72
2023/06/25 01:50:33;;;;;;;9.52;6.78;;;19.00;78.40;;;;;;5017160;28;20048;-73
2023/06/25 01:52:59;;;;;;;8.15;6.75;;;19.00;78.90;;;;;;5000106;28;20045;-73
2023/06/25 01:55:25;;;;;;;8.15;6.78;;;19.00;78.30;;;;;;5032590;28;20044;-72
2023/06/25 01:57:51;;;;;;;8.73;6.57;;;19.00;78.30;;;;;;5016957;28;20108;-72
2023/06/25 02:00:17;;;;;;;10.05;7.07;;;19.00;78.30;;;;;;5020276;28;20038;-73
2023/06/25 02:02:43;;;;;;;10.38;6.85;;;19.00;78.30;;;;;;5018113;28;20744;-72
2023/06/25 02:05:09;;;;;;;10.63;7.57;;;19.00;78.20;;;;;;5002456;28;20160;-72
2023/06/25 02:07:35;;;;;;;8.35;7.18;;;19.00;78.10;;;;;;5031689;28;20048;-73
2023/06/25 02:10:03;;;;;;;9.02;8.13;;;19.00;78.20;;;;;;5016590;28;20524;-73
2023/06/25 02:12:29;;;;;;;13.43;9.02;;;19.00;78.40;;;;;;5016510;28;20041;-75
2023/06/25 02:14:55;;;;;;;11.55;9.15;;;19.00;78.40;;;;;;5017839;28;20032;-75
2023/06/25 02:17:21;;;;;;;12.13;8.73;;;19.10;78.70;;;;;;5019563;28;20042;-75
2023/06/25 02:19:47;;;;;;;10.88;8.90;;;19.30;78.60;;;;;;5030487;28;21142;-76
2023/06/25 02:22:14;;;;;;;9.90;8.60;;;19.30;78.40;;;;;;5020298;28;20133;-76
2023/06/25 02:24:40;;;;;;;14.30;8.40;;;19.50;78.00;;;;;;5015003;28;20124;-76
2023/06/25 02:27:06;;;;;;;9.35;8.35;;;19.60;77.80;;;;;;4999536;28;20605;-76
2023/06/25 02:29:32;;;;;;;10.40;8.25;;;19.70;77.60;;;;;;5016195;28;20133;-76
2023/06/25 02:31:58;;;;;;;10.20;7.40;;;19.80;77.40;;;;;;5016017;28;20055;-75
2023/06/25 02:34:24;;;;;;;7.78;6.97;;;20.00;77.10;;;;;;5015450;28;20165;-74
2023/06/25 02:36:51;;;;;;;8.32;7.07;;;20.00;76.80;;;;;;5018650;28;20036;-73
2023/06/25 02:39:17;;;;;;;8.10;6.57;;;20.20;76.60;;;;;;5014631;28;20044;-73
2023/06/25 02:41:43;;;;;;;9.25;6.68;;;20.30;76.40;;;;;;5031052;28;20037;-73
2023/06/25 02:44:09;;;;;;;7.47;6.78;;;20.40;76.10;;;;;;5014140;28;20034;-73
2023/06/25 02:46:35;;;;;;;8.13;6.70;;;20.60;76.00;;;;;;5016225;28;20049;-74
2023/06/25 02:49:02;;;;;;;8.90;6.82;;;20.70;75.80;;;;;;5011153;28;20104;-74
2023/06/25 02:51:28;;;;;;;8.02;6.80;;;20.80;75.50;;;;;;4993868;28;20535;-74
2023/06/25 02:53:54;;;;;;;10.10;7.10;;;20.90;75.30;;;;;;4995567;28;20030;-75
2023/06/25 02:56:20;;;;;;;6.90;6.20;;;21.00;75.30;;;;;;4977865;28;20506;-73
2023/06/25 02:58:46;;;;;;;7.15;6.30;;;21.10;75.20;;;;;;4994839;28;20067;-73
2023/06/25 03:01:12;;;;;;;6.60;5.93;;;21.20;75.10;;;;;;4994557;28;20122;-73
2023/06/25 03:03:39;;;;;;;9.52;6.25;;;21.40;75.20;;;;;;4993990;28;20116;-73
2023/06/25 03:06:05;;;;;;;7.68;6.65;;;21.40;75.00;;;;;;5011072;28;20077;-72
2023/06/25 03:08:32;;;;;;;7.00;6.25;;;21.50;75.00;;;;;;5000703;28;20065;-73
2023/06/25 03:10:59;;;;;;;8.18;6.47;;;21.50;74.80;;;;;;4992919;28;20046;-73
2023/06/25 03:13:25;;;;;;;7.53;6.65;;;21.60;74.40;;;;;;4993190;28;20096;-73
2023/06/25 03:15:51;;;;;;;8.43;7.10;;;21.70;73.90;;;;;;4994012;28;20225;-73
2023/06/25 03:18:17;;;;;;;9.27;7.00;;;21.70;73.20;;;;;;5009201;28;20026;-73
2023/06/25 03:20:43;;;;;;;8.77;6.60;;;21.80;73.20;;;;;;4995100;28;20539;-73
2023/06/25 03:23:09;;;;;;;6.82;6.18;;;21.90;73.20;;;;;;4996055;28;20038;-73
2023/06/25 03:25:36;;;;;;;6.70;6.00;;;22.00;72.90;;;;;;4995127;28;20042;-73
2023/06/25 03:28:16;;;;;;;6.57;5.97;;;22.10;72.80;;;;;;4995497;28;20034;-75
2023/06/25 03:30:44;;;;;;;6.50;5.90;;;22.30;72.20;;;;;;5009923;28;20623;-75
2023/06/25 03:33:10;;;;;;;8.45;5.57;;;22.30;72.10;;;;;;4999809;28;20038;-75
2023/06/25 03:35:36;;;;;;;6.88;5.38;;;22.50;72.00;;;;;;4978339;28;20072;-75
2023/06/25 03:38:02;;;;;;;7.30;5.40;;;22.60;71.90;;;;;;4994469;28;20084;-75
2023/06/25 03:40:28;;;;;;;6.03;5.53;;;22.70;71.60;;;;;;4993926;28;20041;-75
2023/06/25 03:42:54;;;;;;;8.38;5.78;;;22.80;71.40;;;;;;4994831;28;20037;-73
2023/06/25 03:45:19;;;;;;;6.93;5.68;;;22.90;71.20;;;;;;4995117;28;20053;-73
2023/06/25 03:47:46;;;;;;;5.60;5.10;;;23.00;70.90;;;;;;4994390;28;20080;-72
2023/06/25 03:50:13;;;;;;;5.70;4.95;;;23.10;71.40;;;;;;5013574;28;20057;-73
2023/06/25 03:52:39;;;;;;;6.47;5.40;;;23.20;70.60;;;;;;4999312;28;20042;-73
2023/06/25 03:55:05;;;;;;;6.28;5.25;;;23.30;70.40;;;;;;5013634;28;20096;-73
2023/06/25 03:57:31;;;;;;;6.55;5.38;;;23.40;70.50;;;;;;4999423;28;20040;-73
2023/06/25 03:59:58;;;;;;;7.38;5.03;;;23.50;70.50;;;;;;5004105;28;20030;-73
2023/06/25 04:02:24;;;;;;;5.88;5.18;;;23.60;70.00;;;;;;5015213;28;20045;-73
2023/06/25 04:04:50;;;;;;;5.35;4.85;;;23.70;69.50;;;;;;5002267;28;20045;-73
2023/06/25 04:07:15;;;;;;;6.78;5.10;;;23.70;69.70;;;;;;4999941;28;20081;-74
2023/06/25 04:09:41;;;;;;;8.30;4.90;;;23.80;69.30;;;;;;4997817;28;20516;-73
2023/06/25 04:12:08;;;;;;;5.43;4.65;;;23.90;69.20;;;;;;4998500;28;20599;-73
2023/06/25 04:14:36;;;;;;;5.32;4.63;;;24.00;68.90;;;;;;4999279;28;20065;-73
2023/06/25 04:17:02;;;;;;;5.20;4.40;;;24.10;68.70;;;;;;4998369;28;20076;-73
2023/06/25 04:19:29;;;;;;;5.10;4.60;;;24.20;68.30;;;;;;4997604;28;20421;-73
2023/06/25 04:21:55;;;;;;;4.63;4.22;;;24.30;68.30;;;;;;4998655;28;20156;-73
2023/06/25 04:24:21;;;;;;;5.15;4.65;;;24.40;68.30;;;;;;4998309;28;20026;-73
2023/06/25 04:26:47;;;;;;;4.65;4.25;;;24.50;68.00;;;;;;4998121;28;20077;-73
2023/06/25 04:29:13;;;;;;;4.80;4.30;;;24.60;67.20;;;;;;4997144;28;20034;-73
2023/06/25 04:31:40;;;;;;;4.95;4.22;;;24.80;67.30;;;;;;4996802;28;20401;-73
2023/06/25 04:34:06;;;;;;;4.47;4.10;;;24.90;67.10;;;;;;4996670;28;20041;-73
2023/06/25 04:36:33;;;;;;;5.65;4.28;;;25.00;66.00;;;;;;4997867;28;20029;-73
2023/06/25 04:38:58;;;;;;;4.60;4.18;;;25.10;66.20;;;;;;4999182;28;20729;-73
2023/06/25 04:41:30;;;;;;;4.40;4.00;;;25.20;66.10;;;;;;4997031;28;20038;-73
2023/06/25 04:43:56;;;;;;;5.13;3.88;;;25.30;65.90;;;;;;5014474;28;20035;-73
2023/06/25 04:46:23;;;;;;;4.43;4.07;;;25.40;66.20;;;;;;4997055;28;20430;-73
2023/06/25 04:48:51;;;;;;;4.72;4.05;;;25.50;65.60;;;;;;4997723;28;20117;-74
2023/06/25 04:51:17;;;;;;;6.22;4.60;;;25.50;65.60;;;;;;4980278;28;20030;-75
2023/06/25 04:53:43;;;;;;;4.68;4.20;;;25.50;65.60;;;;;;4996138;28;20054;-76
2023/06/25 04:56:09;;;;;;;4.07;3.78;;;25.60;65.60;;;;;;4996974;28;20503;-76
2023/06/25 04:58:35;;;;;;;4.18;3.78;;;25.70;65.60;;;;;;4998213;28;20034;-76
2023/06/25 05:01:02;;;;;;;3.65;3.35;;;25.70;66.00;;;;;;4997402;28;20548;-76
2023/06/25 05:03:29;;;;;;;4.53;3.72;;;25.90;65.40;;;;;;4995926;28;20046;-75
2023/06/25 05:05:55;;;;;;;9.82;4.10;;;26.00;65.20;;;;;;4997318;28;20030;-75
2023/06/25 05:08:21;;;;;;;4.18;3.78;;;26.00;64.70;;;;;;4996994;28;20567;-76
2023/06/25 05:10:47;;;;;;;4.47;3.88;;;26.10;63.20;;;;;;4996846;28;20129;-75
2023/06/25 05:13:13;;;;;;;5.13;3.72;;;26.10;64.00;;;;;;4996766;28;20188;-75
2023/06/25 05:15:41;;;;;;;4.10;3.70;;;26.10;63.60;;;;;;4997141;28;20034;-75
2023/06/25 05:18:10;;;;;;;4.68;3.67;;;26.20;64.00;;;;;;4997129;28;20526;-75
2023/06/25 05:20:37;;;;;;;4.03;3.67;;;26.30;63.90;;;;;;4993623;28;20117;-75
2023/06/25 05:23:04;;;;;;;4.13;3.72;;;26.40;63.70;;;;;;5012631;28;20037;-75
2023/06/25 05:25:32;;;;;;;3.83;3.50;;;26.40;64.00;;;;;;4993530;28;20088;-75
2023/06/25 05:27:58;;;;;;;3.85;3.55;;;26.50;63.80;;;;;;4995374;28;20039;-75
2023/06/25 05:30:25;;;;;;;4.35;3.85;;;26.60;63.60;;;;;;4996445;28;20149;-76
2023/06/25 05:32:51;;;;;;;5.10;4.00;;;26.70;63.20;;;;;;4997842;28;20022;-75
2023/06/25 05:35:17;;;;;;;5.68;3.78;;;26.70;63.00;;;;;;4996664;28;20408;-75
2023/06/25 05:37:43;;;;;;;4.78;4.15;;;26.80;62.90;;;;;;4996471;28;20041;-74
2023/06/25 05:40:09;;;;;;;4.28;3.92;;;26.90;62.70;;;;;;4996897;28;20042;-73
2023/06/25 05:42:35;;;;;;;4.97;3.65;;;27.00;62.60;;;;;;4995304;28;20033;-73
2023/06/25 05:45:01;;;;;;;4.03;3.53;;;27.10;62.40;;;;;;4995359;28;20034;-74
2023/06/25 05:47:27;;;;;;;3.72;3.42;;;27.20;62.70;;;;;;4995928;28;20042;-74
2023/06/25 05:49:53;;;;;;;4.97;3.35;;;27.30;62.30;;;;;;4995844;28;20049;-73
2023/06/25 05:52:19;;;;;;;4.10;3.33;;;27.40;61.30;;;;;;4994445;28;20137;-73
2023/06/25 05:54:45;;;;;;;4.32;3.38;;;27.50;61.20;;;;;;4995407;28;20053;-73
2023/06/25 05:57:12;;;;;;;3.83;3.00;;;27.50;61.10;;;;;;4996078;28;20057;-72
2023/06/25 05:59:38;;;;;;;3.88;3.58;;;27.60;60.90;;;;;;4992882;28;20076;-73
2023/06/25 06:02:07;;;;;;;3.47;3.17;;;27.70;60.80;;;;;;4995509;28;20038;-72
2023/06/25 06:04:34;;;;;;;4.20;2.83;;;27.80;60.50;;;;;;4993798;28;20049;-71
2023/06/25 06:07:00;;;;;;;3.30;3.00;;;27.90;60.20;;;;;;4994328;28;20046;-72
2023/06/25 06:09:26;;;;;;;3.55;3.17;;;27.90;59.90;;;;;;4994056;28;20091;-75
2023/06/25 06:11:52;;;;;;;3.70;3.40;;;28.00;59.70;;;;;;5009319;28;20413;-73
2023/06/25 06:14:18;;;;;;;4.53;3.10;;;28.00;59.90;;;;;;4995257;28;20049;-73
2023/06/25 06:16:44;;;;;;;3.60;3.30;;;28.00;59.60;;;;;;4997273;28;21010;-81
2023/06/25 06:19:10;;;;;;;3.80;3.50;;;27.90;49.60;;;;;;4993068;28;20520;-81
2023/06/25 06:21:36;;;;;;;4.00;3.65;;;27.70;50.50;;;;;;4995307;28;20108;-78
2023/06/25 06:24:02;;;;;;;4.32;3.70;;;27.40;48.10;;;;;;4996361;28;20030;-78
2023/06/25 06:26:28;;;;;;;5.25;3.80;;;27.30;49.20;;;;;;4994179;28;20046;-77
2023/06/25 06:28:54;;;;;;;5.85;4.35;;;27.40;51.80;;;;;;4994777;28;20042;-77
2023/06/25 06:31:21;;;;;;;3.90;3.40;;;27.40;49.40;;;;;;4995017;28;20045;-77
2023/06/25 06:33:47;;;;;;;5.22;3.70;;;27.30;47.60;;;;;;4995239;28;20037;-75
2023/06/25 06:36:13;;;;;;;4.38;3.97;;;27.20;47.60;;;;;;4996914;28;20030;-75
2023/06/25 06:38:39;;;;;;;4.90;3.60;;;27.10;48.20;;;;;;4996812;28;20405;-75
2023/06/25 06:41:05;;;;;;;4.40;3.67;;;27.20;49.20;;;;;;5013469;28;20502;-75
2023/06/25 06:43:32;;;;;;;4.40;4.05;;;27.10;47.50;;;;;;4993319;28;20061;-76
2023/06/25 06:45:58;;;;;;;4.63;4.22;;;27.10;48.20;;;;;;4994530;28;20042;-74
2023/06/25 06:48:24;;;;;;;6.45;4.78;;;27.10;47.80;;;;;;4995309;28;20453;-75
2023/06/25 06:50:50;;;;;;;5.10;4.50;;;27.10;48.50;;;;;;4995591;28;20034;-76
2023/06/25 06:53:16;;;;;;;4.90;4.35;;;27.10;47.70;;;;;;4995010;28;20107;-77
2023/06/25 06:55:42;;;;;;;5.93;4.25;;;27.00;48.20;;;;;;4994428;28;20057;-75
2023/06/25 06:58:08;;;;;;;6.32;4.32;;;27.20;48.90;;;;;;4992082;28;20034;-77
2023/06/25 07:00:34;;;;;;;9.13;5.22;;;27.30;47.70;;;;;;4992746;28;20567;-77
2023/06/25 07:03:00;;;;;;;4.40;4.00;;;27.20;48.20;;;;;;4996595;28;20088;-76
2023/06/25 07:05:26;;;;;;;5.95;4.60;;;27.30;49.00;;;;;;4994415;28;20626;-75
2023/06/25 07:07:52;;;;;;;4.55;3.88;;;27.50;49.60;;;;;;4995352;28;20038;-79
2023/06/25 07:10:17;;;;;;;4.72;4.32;;;27.60;54.10;;;;;;4994455;28;20058;-75
2023/06/25 07:12:43;;;;;;;5.35;4.80;;;27.50;47.50;;;;;;4994672;28;20409;-74
2023/06/25 07:15:09;;;;;;;7.00;4.63;;;27.60;51.90;;;;;;4995939;28;20043;-75
2023/06/25 07:17:35;;;;;;;4.93;4.43;;;27.60;48.10;;;;;;4994366;28;20042;-74
2023/06/25 07:20:01;;;;;;;4.85;4.35;;;27.50;46.50;;;;;;4994394;28;20034;-75
2023/06/25 07:22:27;;;;;;;4.82;4.40;;;27.50;46.10;;;;;;4994009;28;20058;-75
2023/06/25 07:24:53;;;;;;;4.97;4.30;;;27.20;45.50;;;;;;4995363;28;20117;-75
2023/06/25 07:27:19;;;;;;;5.32;4.82;;;27.00;45.80;;;;;;4995285;28;20033;-76
2023/06/25 07:29:45;;;;;;;5.20;4.68;;;27.10;47.00;;;;;;4991777;28;20465;-73
2023/06/25 07:32:11;;;;;;;6.15;4.47;;;27.00;46.70;;;;;;5009343;28;20040;-74
2023/06/25 07:34:37;;;;;;;5.72;4.80;;;26.90;47.50;;;;;;4994611;28;20038;-75
2023/06/25 07:37:03;;;;;;;4.70;4.30;;;26.80;47.10;;;;;;4997378;28;20034;-75
2023/06/25 07:39:29;;;;;;;6.47;4.60;;;26.90;49.10;;;;;;4993371;28;20040;-74
2023/06/25 07:41:56;;;;;;;6.35;4.57;;;27.00;48.50;;;;;;4992416;28;20444;-73
2023/06/25 07:44:23;;;;;;;4.95;4.43;;;26.90;46.70;;;;;;4994511;28;20049;-76
2023/06/25 07:46:49;;;;;;;4.72;4.15;;;26.80;46.60;;;;;;4993010;28;20958;-75
2023/06/25 07:49:15;;;;;;;5.30;4.30;;;26.90;48.90;;;;;;4993801;28;20039;-78
2023/06/25 07:51:44;;;;;;;4.00;3.60;;;26.70;44.40;;;;;;4991602;28;20062;-76
2023/06/25 07:54:11;;;;;;;6.68;4.10;;;26.60;44.00;;;;;;4993121;28;20400;-76
2023/06/25 07:56:37;;;;;;;5.57;4.18;;;26.50;44.70;;;;;;4993841;28;20027;-76
2023/06/25 07:59:03;;;;;;;4.88;4.30;;;26.30;45.60;;;;;;4991946;28;20129;-76
2023/06/25 08:01:29;;;;;;;6.53;4.10;;;26.30;45.90;;;;;;4989476;28;20040;-75
2023/06/25 08:03:56;;;;;;;4.82;3.72;;;26.30;47.00;;;;;;4992112;28;20829;-77
2023/06/25 08:06:23;;;;;;;5.70;3.83;;;26.30;46.00;;;;;;4993278;28;20097;-76
2023/06/25 08:08:49;;;;;;;5.13;4.10;;;26.30;46.20;;;;;;5011214;28;20045;-75
2023/06/25 08:11:15;;;;;;;6.22;4.20;;;26.10;45.20;;;;;;5012571;28;20417;-75
2023/06/25 08:13:40;;;;;;;4.18;3.80;;;25.90;44.60;;;;;;5012012;28;20034;-75
2023/06/25 08:16:06;;;;;;;4.40;4.00;;;25.90;45.30;;;;;;5011266;28;20038;-76
2023/06/25 08:18:32;;;;;;;4.50;3.95;;;26.00;45.00;;;;;;5011557;28;20112;-77
2023/06/25 08:20:58;;;;;;;5.30;4.20;;;25.90;46.10;;;;;;5011318;28;20030;-80
2023/06/25 08:23:25;;;;;;;4.60;4.20;;;26.00;45.30;;;;;;5012557;28;20067;-76
2023/06/25 08:25:54;;;;;;;4.82;4.30;;;25.90;45.40;;;;;;5011314;28;20037;-77
2023/06/25 08:28:20;;;;;;;5.70;4.38;;;25.80;45.00;;;;;;5010999;28;20046;-77
2023/06/25 08:30:46;;;;;;;5.10;4.30;;;25.70;45.80;;;;;;5012450;28;20056;-75
2023/06/25 08:33:12;;;;;;;4.70;4.22;;;25.70;47.00;;;;;;5011572;28;20048;-76
2023/06/25 08:35:38;;;;;;;4.95;4.50;;;25.80;47.30;;;;;;5012945;28;20060;-74
2023/06/25 08:38:04;;;;;;;4.60;4.20;;;25.70;46.60;;;;;;5015464;28;20603;-75
2023/06/25 08:40:35;;;;;;;5.03;4.63;;;25.70;47.10;;;;;;5014316;28;20042;-74
2023/06/25 08:43:02;;;;;;;5.20;4.70;;;25.70;46.80;;;;;;4996956;28;20091;-76
2023/06/25 08:45:29;;;;;;;7.32;4.78;;;25.70;46.10;;;;;;5017215;28;20488;-75
2023/06/25 08:47:59;;;;;;;5.30;4.80;;;25.60;47.00;;;;;;5016882;28;20053;-75
2023/06/25 08:50:25;;;;;;;5.38;4.88;;;25.40;46.40;;;;;;5015739;28;20038;-75
2023/06/25 08:52:52;;;;;;;5.00;4.43;;;25.50;47.90;;;;;;5015047;28;20076;-76
2023/06/25 08:55:19;;;;;;;6.53;5.28;;;25.40;47.80;;;;;;5014009;28;20448;-76
2023/06/25 08:57:45;;;;;;;6.53;5.25;;;25.50;48.60;;;;;;5015522;28;20453;-74
2023/06/25 09:00:13;;;;;;;5.78;4.95;;;25.50;48.10;;;;;;5031350;28;20061;-77
2023/06/25 09:02:39;;;;;;;5.50;5.03;;;25.50;47.60;;;;;;5007365;28;20137;-76
2023/06/25 09:05:13;;;;;;;5.57;5.03;;;25.30;46.60;;;;;;5009681;28;20048;-76
2023/06/25 09:07:46;;;;;;;5.07;4.68;;;25.20;46.50;;;;;;5011440;28;20116;-73
2023/06/25 09:10:13;;;;;;;6.00;5.05;;;25.10;47.30;;;;;;5011780;28;20057;-73
2023/06/25 09:12:39;;;;;;;5.45;4.95;;;25.10;47.40;;;;;;4999804;28;20030;-76
2023/06/25 09:15:08;;;;;;;5.72;4.78;;;25.10;47.10;;;;;;5013631;28;20033;-81
2023/06/25 09:17:36;;;;;;;5.32;4.93;;;25.10;47.30;;;;;;5011686;28;20037;-77
2023/06/25 09:20:06;;;;;;;6.20;5.60;;;25.10;47.60;;;;;;5012015;28;20033;-76
2023/06/25 09:22:33;;;;;;;6.68;5.30;;;25.00;46.20;;;;;;5010777;28;20026;-76
2023/06/25 09:24:59;;;;;;;5.90;5.32;;;24.80;46.00;;;;;;5012397;28;20424;-78
2023/06/25 09:27:25;;;;;;;6.13;4.90;;;24.70;46.90;;;;;;5008975;28;20049;-76
2023/06/25 09:29:56;;;;;;;4.82;4.45;;;24.70;46.10;;;;;;5011750;28;20037;-77
2023/06/25 09:32:22;;;;;;;6.75;5.00;;;24.70;45.60;;;;;;5010322;28;20034;-79
2023/06/25 09:34:48;;;;;;;5.38;4.97;;;24.60;44.60;;;;;;5005785;28;20038;-77
2023/06/25 09:37:14;;;;;;;4.90;4.25;;;24.60;47.10;;;;;;5008603;28;20064;-75
2023/06/25 09:39:40;;;;;;;4.90;4.50;;;24.70;47.90;;;;;;5005214;28;20125;-84
2023/06/25 09:42:08;;;;;;;4.78;4.38;;;24.80;48.80;;;;;;5011516;28;20041;-77
2023/06/25 09:44:35;;;;;;;5.75;5.15;;;24.60;45.60;;;;;;5012359;28;20183;-80
2023/06/25 09:47:07;;;;;;;5.30;4.80;;;24.60;44.60;;;;;;5009706;28;20043;-78
2023/06/25 09:49:33;;;;;;;6.25;5.60;;;24.40;44.20;;;;;;5007553;28;20033;-74
2023/06/25 09:52:11;;;;;;;5.72;4.85;;;24.20;45.20;;;;;;4996829;28;20050;-82
2023/06/25 09:54:40;;;;;;;9.10;5.43;;;24.30;47.40;;;;;;4994622;28;20030;-75
2023/06/25 09:57:14;;;;;;;5.93;5.32;;;24.30;45.80;;;;;;5007573;28;20026;-74
2023/06/25 09:59:41;;;;;;;5.47;4.97;;;24.40;46.70;;;;;;5012051;28;20096;-76
2023/06/25 10:02:07;;;;;;;5.60;5.10;;;24.40;47.40;;;;;;5007535;28;20072;-72
2023/06/25 10:04:34;;;;;;;6.40;5.50;;;24.30;44.90;;;;;;4982273;28;20052;-70
2023/06/25 10:07:04;;;;;;;8.15;5.28;;;24.20;45.00;;;;;;4982999;28;20042;-73
2023/06/25 10:09:30;;;;;;;6.72;5.18;;;24.20;45.60;;;;;;4999666;28;20102;-76
2023/06/25 10:11:57;;;;;;;6.05;4.90;;;24.20;45.50;;;;;;5013851;28;20124;-75
2023/06/25 10:14:29;;;;;;;6.82;5.20;;;24.20;46.20;;;;;;5015887;28;20519;-78
2023/06/25 10:17:00;;;;;;;5.65;5.03;;;24.30;46.10;;;;;;5016022;28;20140;-76
2023/06/25 10:19:32;;;;;;;5.97;5.47;;;24.20;46.20;;;;;;5015913;28;20057;-74
2023/06/25 10:22:10;;;;;;;5.53;5.05;;;24.10;46.40;;;;;;5016124;28;20467;-77
2023/06/25 10:24:49;;;;;;;8.02;4.95;;;24.10;46.60;;;;;;5015708;28;20041;-75
2023/06/25 10:27:21;;;;;;;5.97;5.20;;;24.10;46.10;;;;;;5017305;28;20053;-76
2023/06/25 10:29:51;;;;;;;5.65;4.80;;;24.10;45.70;;;;;;5003059;28;20069;-75
2023/06/25 10:32:27;;;;;;;5.25;4.75;;;24.20;47.10;;;;;;5017027;28;20082;-76
2023/06/25 10:35:03;;;;;;;5.97;5.03;;;24.20;45.80;;;;;;5017421;28;20038;-76
2023/06/25 10:37:31;;;;;;;6.13;5.63;;;24.20;45.20;;;;;;5017630;28;21055;-77
2023/06/25 10:40:12;;;;;;;6.70;5.20;;;24.00;45.50;;;;;;5012735;28;20030;-73
2023/06/25 10:42:38;;;;;;;6.15;5.53;;;23.90;45.80;;;;;;5013086;28;20038;-75
2023/06/25 10:45:05;;;;;;;7.32;5.90;;;24.00;46.40;;;;;;5017307;28;20056;-77
2023/06/25 10:47:33;;;;;;;5.85;5.28;;;24.00;45.30;;;;;;5016720;28;20040;-76
2023/06/25 10:49:59;;;;;;;6.28;5.55;;;24.00;46.30;;;;;;5016048;28;20099;-76
2023/06/25 10:52:25;;;;;;;12.45;5.93;;;24.00;46.10;;;;;;5015288;28;20041;-75
2023/06/25 10:54:55;;;;;;;6.75;5.50;;;24.00;46.40;;;;;;5016556;28;20030;-75
2023/06/25 10:57:21;;;;;;;6.47;5.63;;;24.00;46.70;;;;;;5015762;28;20029;-76
2023/06/25 10:59:48;;;;;;;6.47;5.47;;;24.00;47.10;;;;;;5012170;28;20041;-73
2023/06/25 11:02:21;;;;;;;6.35;5.53;;;24.00;46.80;;;;;;5015779;28;20034;-74
2023/06/25 11:04:52;;;;;;;5.90;5.40;;;24.10;46.50;;;;;;5016054;28;20045;-77
2023/06/25 11:07:19;;;;;;;6.40;5.80;;;24.00;47.00;;;;;;5015414;28;20037;-77
2023/06/25 11:09:50;;;;;;;5.57;5.07;;;24.10;46.80;;;;;;5015145;28;20050;-76
2023/06/25 11:12:20;;;;;;;6.28;5.68;;;24.10;46.70;;;;;;5016696;28;20496;-76
2023/06/25 11:14:46;;;;;;;5.97;5.47;;;24.00;46.50;;;;;;5015788;28;20524;-74
2023/06/25 11:17:15;;;;;;;7.03;5.43;;;24.10;46.30;;;;;;5016554;28;20091;-77
2023/06/25 11:19:41;;;;;;;6.53;5.93;;;24.00;46.20;;;;;;5015149;28;20030;-77
2023/06/25 11:22:08;;;;;;;5.90;5.30;;;24.00;45.90;;;;;;5015269;28;20522;-76
2023/06/25 11:24:35;;;;;;;6.10;5.50;;;24.00;46.50;;;;;;5016123;28;20458;-76
2023/06/25 11:27:01;;;;;;;6.25;5.75;;;24.10;46.70;;;;;;5016195;28;20079;-76
2023/06/25 11:29:38;;;;;;;6.43;5.82;;;24.00;46.80;;;;;;5015073;28;20088;-76
2023/06/25 11:32:07;;;;;;;7.32;6.20;;;24.10;47.00;;;;;;5015278;28;20033;-76
2023/06/25 11:34:35;;;;;;;6.47;5.88;;;24.00;46.30;;;;;;5015974;28;20030;-76
2023/06/25 11:37:11;;;;;;;5.78;5.28;;;24.10;46.70;;;;;;5015284;28;20068;-75
2023/06/25 11:39:46;;;;;;;7.00;5.53;;;24.20;47.20;;;;;;5015813;28;20045;-74
2023/06/25 11:42:15;;;;;;;5.82;5.32;;;24.20;46.90;;;;;;5015352;28;20048;-76
2023/06/25 11:44:42;;;;;;;7.07;5.53;;;24.20;46.80;;;;;;5012974;28;20041;-76
2023/06/25 11:47:09;;;;;;;6.25;5.35;;;24.20;46.60;;;;;;5015370;28;20044;-74
2023/06/25 11:49:36;;;;;;;5.68;5.18;;;24.20;46.70;;;;;;5015796;28;20037;-75
2023/06/25 11:52:02;;;;;;;6.28;5.68;;;24.20;46.50;;;;;;5016166;28;20033;-75
2023/06/25 11:54:28;;;;;;;5.80;5.30;;;24.10;46.40;;;;;;5017119;28;20639;-74
2023/06/25 11:56:54;;;;;;;5.70;5.15;;;24.10;46.90;;;;;;5016931;28;20488;-74
2023/06/25 11:59:20;;;;;;;6.15;5.65;;;24.20;46.40;;;;;;5016888;28;20104;-75
2023/06/25 12:01:46;;;;;;;6.32;5.72;;;24.10;46.40;;;;;;5031575;28;20127;-73
2023/06/25 12:04:12;;;;;;;7.00;5.85;;;24.00;46.40;;;;;;5017559;28;20045;-75
2023/06/25 12:06:38;;;;;;;6.38;5.78;;;24.00;46.70;;;;;;5017037;28;20468;-75
2023/06/25 12:09:03;;;;;;;11.93;6.28;;;24.10;46.90;;;;;;5016491;28;20025;-75
2023/06/25 12:11:30;;;;;;;6.55;5.85;;;24.10;46.80;;;;;;5018141;28;20049;-75
2023/06/25 12:13:56;;;;;;;6.43;5.65;;;24.10;46.40;;;;;;5017947;28;20034;-75
2023/06/25 12:16:22;;;;;;;6.22;5.65;;;24.20;46.80;;;;;;5017331;28;20456;-76
2023/06/25 12:18:48;;;;;;;6.30;5.60;;;24.00;45.30;;;;;;5016497;28;20115;-74
2023/06/25 12:21:14;;;;;;;6.30;5.53;;;24.00;46.00;;;;;;5017499;28;20084;-74
2023/06/25 12:23:40;;;;;;;6.15;5.55;;;24.00;46.40;;;;;;5017601;28;20034;-75
2023/06/25 12:26:06;;;;;;;7.13;5.80;;;24.00;46.40;;;;;;5018768;28;20053;-74
2023/06/25 12:28:32;;;;;;;7.40;5.88;;;24.00;46.00;;;;;;5016156;28;20029;-75
2023/06/25 12:30:58;;;;;;;6.03;5.40;;;24.00;46.00;;;;;;5017015;28;20037;-76
2023/06/25 12:33:24;;;;;;;6.10;5.50;;;24.00;46.00;;;;;;5017681;28;20049;-76
2023/06/25 12:35:50;;;;;;;7.28;5.82;;;24.00;45.70;;;;;;5016148;28;20061;-76
2023/06/25 12:38:16;;;;;;;7.15;6.00;;;23.90;45.70;;;;;;5017161;28;20539;-76
2023/06/25 12:40:42;;;;;;;6.68;5.95;;;24.00;46.00;;;;;;5016147;28;20042;-75
2023/06/25 12:43:08;;;;;;;6.25;5.25;;;24.00;45.90;;;;;;5017193;28;20409;-76
2023/06/25 12:45:33;;;;;;;6.10;5.60;;;24.00;45.70;;;;;;5016935;28;20034;-76